sensor_id;sensor_type;location;lat;lon;timestamp;pressure;altitude;pressure_sealevel;temperature;humidity
79780;BME280;69258;52.050;10.334;2023-05-07T00:06:53;100034.47;;;19.30;48.34
79780;BME280;69258;52.050;10.334;2023-05-07T00:21:55;100033.00;;;19.27;48.14
79780;BME280;69258;52.050;10.334;2023-05-07T00:36:57;100051.06;;;19.25;48.15
79780;BME280;69258;52.050;10.334;2023-05-07T00:51:58;100032.53;;;19.23;48.13
79780;BME280;69258;52.050;10.334;2023-05-07T01:07:04;100017.72;;;19.21;48.09
79780;BME280;69258;52.050;10.334;2023-05-07T01:22:08;100019.72;;;19.19;48.20
79780;BME280;69258;52.050;10.334;2023-05-07T01:37:10;100004.91;;;19.16;47.74
79780;BME280;69258;52.050;10.334;2023-05-07T01:52:13;100022.16;;;19.14;47.62
79780;BME280;69258;52.050;10.334;2023-05-07T02:07:15;99999.28;;;19.11;47.81
79780;BME280;69258;52.050;10.334;2023-05-07T02:22:16;100012.03;;;19.09;47.41
79780;BME280;69258;52.050;10.334;2023-05-07T02:37:18;100033.78;;;19.06;47.78
79780;BME280;69258;52.050;10.334;2023-05-07T02:52:20;100041.94;;;19.05;47.53
79780;BME280;69258;52.050;10.334;2023-05-07T03:07:22;100044.16;;;19.01;47.58
79780;BME280;69258;52.050;10.334;2023-05-07T03:22:23;100027.50;;;18.99;47.32
79780;BME280;69258;52.050;10.334;2023-05-07T03:37:25;100014.50;;;18.96;47.29
79780;BME280;69258;52.050;10.334;2023-05-07T03:52:27;100017.56;;;18.93;47.28
79780;BME280;69258;52.050;10.334;2023-05-07T04:07:28;100022.25;;;18.91;47.34
79780;BME280;69258;52.050;10.334;2023-05-07T04:22:30;100049.97;;;18.90;47.29
79780;BME280;69258;52.050;10.334;2023-05-07T04:37:32;100063.50;;;18.89;47.04
79780;BME280;69258;52.050;10.334;2023-05-07T04:52:34;100073.53;;;18.87;47.17
79780;BME280;69258;52.050;10.334;2023-05-07T05:07:36;100075.75;;;18.83;47.06
79780;BME280;69258;52.050;10.334;2023-05-07T05:22:38;100097.94;;;18.84;47.04
79780;BME280;69258;52.050;10.334;2023-05-07T05:37:40;100091.56;;;18.85;47.21
79780;BME280;69258;52.050;10.334;2023-05-07T05:52:42;100120.78;;;18.86;46.97
79780;BME280;69258;52.050;10.334;2023-05-07T06:07:44;100113.97;;;18.84;46.69
79780;BME280;69258;52.050;10.334;2023-05-07T06:22:45;100101.63;;;18.83;46.82
79780;BME280;69258;52.050;10.334;2023-05-07T06:37:47;100112.75;;;18.86;46.71
79780;BME280;69258;52.050;10.334;2023-05-07T06:52:49;100122.59;;;18.86;46.67
79780;BME280;69258;52.050;10.334;2023-05-07T07:07:50;100134.13;;;18.86;46.69
79780;BME280;69258;52.050;10.334;2023-05-07T07:22:52;100149.31;;;18.86;46.58
79780;BME280;69258;52.050;10.334;2023-05-07T07:37:54;100162.50;;;18.87;46.33
79780;BME280;69258;52.050;10.334;2023-05-07T07:52:56;100135.78;;;18.87;46.26
79780;BME280;69258;52.050;10.334;2023-05-07T08:07:57;100144.63;;;18.88;46.57
79780;BME280;69258;52.050;10.334;2023-05-07T08:22:59;100163.31;;;18.88;46.44
79780;BME280;69258;52.050;10.334;2023-05-07T08:38:01;100170.28;;;18.89;46.37
79780;BME280;69258;52.050;10.334;2023-05-07T08:53:04;100184.31;;;18.91;45.99
79780;BME280;69258;52.050;10.334;2023-05-07T09:08:07;100189.44;;;18.92;46.21
79780;BME280;69258;52.050;10.334;2023-05-07T09:23:09;100182.28;;;18.93;46.11
79780;BME280;69258;52.050;10.334;2023-05-07T09:38:12;100187.44;;;18.94;46.04
79780;BME280;69258;52.050;10.334;2023-05-07T09:53:14;100193.78;;;18.93;46.36
79780;BME280;69258;52.050;10.334;2023-05-07T10:08:16;100188.09;;;18.96;46.45
79780;BME280;69258;52.050;10.334;2023-05-07T10:23:23;100194.25;;;18.97;46.03
79780;BME280;69258;52.050;10.334;2023-05-07T10:38:26;100202.72;;;19.00;46.33
79780;BME280;69258;52.050;10.334;2023-05-07T10:53:29;100195.38;;;19.02;46.28
79780;BME280;69258;52.050;10.334;2023-05-07T11:23:54;100188.47;;;19.08;46.15
79780;BME280;69258;52.050;10.334;2023-05-07T11:38:56;100201.75;;;19.16;46.12
79780;BME280;69258;52.050;10.334;2023-05-07T11:53:58;100197.53;;;19.21;46.14
79780;BME280;69258;52.050;10.334;2023-05-07T12:09:00;100197.34;;;19.23;46.20
79780;BME280;69258;52.050;10.334;2023-05-07T12:24:02;100217.06;;;19.22;46.45
79780;BME280;69258;52.050;10.334;2023-05-07T12:39:05;100223.06;;;19.24;46.01
79780;BME280;69258;52.050;10.334;2023-05-07T12:54:07;100229.22;;;19.24;46.49
79780;BME280;69258;52.050;10.334;2023-05-07T13:09:09;100218.16;;;19.28;46.08
79780;BME280;69258;52.050;10.334;2023-05-07T13:24:10;100202.97;;;19.28;46.36
79780;BME280;69258;52.050;10.334;2023-05-07T13:39:12;100198.25;;;19.30;46.04
79780;BME280;69258;52.050;10.334;2023-05-07T13:54:14;100205.94;;;19.33;46.39
79780;BME280;69258;52.050;10.334;2023-05-07T14:09:16;100209.41;;;19.34;46.77
79780;BME280;69258;52.050;10.334;2023-05-07T14:24:17;100203.25;;;19.33;46.69
79780;BME280;69258;52.050;10.334;2023-05-07T14:39:38;100195.25;;;19.33;46.26
79780;BME280;69258;52.050;10.334;2023-05-07T14:54:40;100209.06;;;19.37;46.64
79780;BME280;69258;52.050;10.334;2023-05-07T15:09:43;100210.53;;;19.39;46.75
79780;BME280;69258;52.050;10.334;2023-05-07T15:24:45;100237.25;;;19.39;46.84
79780;BME280;69258;52.050;10.334;2023-05-07T15:39:46;100240.78;;;19.40;47.07
79780;BME280;69258;52.050;10.334;2023-05-07T15:54:48;100222.06;;;19.40;47.09
79780;BME280;69258;52.050;10.334;2023-05-07T16:09:50;100227.41;;;19.40;47.09
79780;BME280;69258;52.050;10.334;2023-05-07T16:24:51;100231.06;;;19.39;47.36
79780;BME280;69258;52.050;10.334;2023-05-07T16:39:53;100241.97;;;19.37;47.36
79780;BME280;69258;52.050;10.334;2023-05-07T16:54:55;100245.66;;;19.36;47.69
79780;BME280;69258;52.050;10.334;2023-05-07T17:09:57;100255.66;;;19.34;47.83
79780;BME280;69258;52.050;10.334;2023-05-07T17:24:59;100255.03;;;19.32;47.40
79780;BME280;69258;52.050;10.334;2023-05-07T17:40:00;100267.72;;;19.30;47.13
79780;BME280;69258;52.050;10.334;2023-05-07T17:55:02;100275.13;;;19.28;47.54
79780;BME280;69258;52.050;10.334;2023-05-07T18:10:04;100291.50;;;19.25;47.59
79780;BME280;69258;52.050;10.334;2023-05-07T18:25:07;100291.22;;;19.20;47.43
79780;BME280;69258;52.050;10.334;2023-05-07T18:40:09;100302.25;;;19.17;47.21
79780;BME280;69258;52.050;10.334;2023-05-07T18:55:12;100317.81;;;19.13;47.53
79780;BME280;69258;52.050;10.334;2023-05-07T19:10:14;100309.34;;;19.10;47.62
79780;BME280;69258;52.050;10.334;2023-05-07T19:25:16;100309.69;;;19.07;47.50
79780;BME280;69258;52.050;10.334;2023-05-07T19:40:18;100325.25;;;19.03;47.31
79780;BME280;69258;52.050;10.334;2023-05-07T19:55:20;100329.09;;;19.01;47.49
79780;BME280;69258;52.050;10.334;2023-05-07T20:10:22;100334.78;;;18.98;47.40
79780;BME280;69258;52.050;10.334;2023-05-07T20:25:24;100342.16;;;18.96;47.42
79780;BME280;69258;52.050;10.334;2023-05-07T20:40:26;100346.19;;;18.92;47.13
79780;BME280;69258;52.050;10.334;2023-05-07T20:55:28;100357.22;;;18.89;47.06
79780;BME280;69258;52.050;10.334;2023-05-07T21:10:29;100355.09;;;18.84;47.03
79780;BME280;69258;52.050;10.334;2023-05-07T21:25:31;100371.13;;;18.84;47.03
79780;BME280;69258;52.050;10.334;2023-05-07T21:40:33;100375.31;;;18.79;46.72
79780;BME280;69258;52.050;10.334;2023-05-07T21:55:35;100372.97;;;18.75;47.10
79780;BME280;69258;52.050;10.334;2023-05-07T22:10:37;100391.00;;;18.73;47.16
79780;BME280;69258;52.050;10.334;2023-05-07T22:25:39;100384.34;;;18.69;47.29
79780;BME280;69258;52.050;10.334;2023-05-07T22:40:40;100372.19;;;18.67;46.74
79780;BME280;69258;52.050;10.334;2023-05-07T22:55:42;100359.19;;;18.64;46.97
79780;BME280;69258;52.050;10.334;2023-05-07T23:10:44;100356.06;;;18.60;46.94
79780;BME280;69258;52.050;10.334;2023-05-07T23:25:45;100354.56;;;18.58;46.89
79780;BME280;69258;52.050;10.334;2023-05-07T23:40:47;100354.72;;;18.56;47.12
79780;BME280;69258;52.050;10.334;2023-05-07T23:55:49;100367.75;;;18.51;46.66
